Time;durP1;ratioP1;P1;durP2;ratioP2;P2;SDS_P1;SDS_P2;PMS_P1;PMS_P2;Temp;Humidity;BMP_temperature;BMP_pressure;BME280_temperature;BME280_humidity;BME280_pressure;Samples;Min_cycle;Max_cycle;Signal;HPM_P1;HPM_P2
2023/04/10 00:01:02;;;;;;;98.40;71.68;;;6.80;99.90;;;;;;5067637;28;20057;-73
2023/04/10 00:03:28;;;;;;;103.55;73.22;;;6.80;99.90;;;;;;5066849;28;20052;-73
2023/04/10 00:05:55;;;;;;;93.28;69.85;;;6.70;99.90;;;;;;5066998;28;20107;-73
2023/04/10 00:08:22;;;;;;;103.25;73.38;;;6.70;99.90;;;;;;5064403;28;20458;-73
2023/04/10 00:10:48;;;;;;;94.90;71.47;;;6.80;99.90;;;;;;5066053;28;20060;-73
2023/04/10 00:13:15;;;;;;;111.85;79.22;;;6.70;99.90;;;;;;5063767;28;20773;-73
2023/04/10 00:15:41;;;;;;;108.03;78.00;;;6.70;99.90;;;;;;5067393;28;20040;-73
2023/04/10 00:18:08;;;;;;;107.75;78.93;;;6.70;99.90;;;;;;5065632;28;20037;-73
2023/04/10 00:20:33;;;;;;;107.70;76.18;;;6.70;99.90;;;;;;5056662;28;20622;-73
2023/04/10 00:22:59;;;;;;;111.80;79.70;;;6.70;99.90;;;;;;5063538;28;20052;-73
2023/04/10 00:25:25;;;;;;;106.25;77.90;;;6.70;99.90;;;;;;5059469;28;20481;-73
2023/04/10 00:27:52;;;;;;;98.95;77.20;;;6.70;99.90;;;;;;5065918;28;20044;-73
2023/04/10 00:30:18;;;;;;;112.95;78.65;;;6.70;99.90;;;;;;5057853;28;20048;-73
2023/04/10 00:32:45;;;;;;;109.60;81.40;;;6.70;99.90;;;;;;5064000;28;20746;-73
2023/04/10 00:35:10;;;;;;;121.32;83.60;;;6.60;99.90;;;;;;5055369;28;20552;-73
2023/04/10 00:37:37;;;;;;;106.32;81.15;;;6.60;99.90;;;;;;5056632;28;20059;-73
2023/04/10 00:40:04;;;;;;;111.07;84.43;;;6.60;99.90;;;;;;5064606;28;20825;-73
2023/04/10 00:42:31;;;;;;;107.95;84.38;;;6.60;99.90;;;;;;5067638;28;20127;-73
2023/04/10 00:44:57;;;;;;;112.50;84.07;;;6.60;99.90;;;;;;5064145;28;20056;-73
2023/04/10 00:47:24;;;;;;;115.18;83.78;;;6.60;99.90;;;;;;5062120;28;20036;-73
2023/04/10 00:49:50;;;;;;;119.80;88.82;;;6.50;99.90;;;;;;5061855;28;20098;-73
2023/04/10 00:52:16;;;;;;;115.72;84.93;;;6.50;99.90;;;;;;5066641;28;20040;-73
2023/04/10 00:54:42;;;;;;;120.90;88.10;;;6.50;99.90;;;;;;5050880;28;20127;-73
2023/04/10 00:57:07;;;;;;;108.82;85.13;;;6.60;99.90;;;;;;5068439;28;20037;-73
2023/04/10 00:59:34;;;;;;;115.00;86.40;;;6.50;99.90;;;;;;5065979;28;20528;-72
2023/04/10 01:02:00;;;;;;;129.32;91.90;;;6.50;99.90;;;;;;5059571;28;20048;-73
2023/04/10 01:04:27;;;;;;;111.75;88.03;;;6.50;99.90;;;;;;5067132;28;20646;-73
2023/04/10 01:07:00;;;;;;;115.80;89.82;;;6.50;99.90;;;;;;5056633;28;20110;-73
2023/04/10 01:09:54;;;;;;;125.03;93.75;;;6.50;99.90;;;;;;5063292;28;20563;-73
2023/04/10 01:12:35;;;;;;;120.10;88.82;;;6.50;99.90;;;;;;5063404;28;20044;-73
2023/04/10 01:15:10;;;;;;;116.65;94.38;;;6.50;99.90;;;;;;5062400;28;20486;-73
2023/04/10 01:18:10;;;;;;;120.88;91.57;;;6.40;99.90;;;;;;5055182;28;20048;-73
2023/04/10 01:20:40;;;;;;;118.93;95.13;;;6.40;99.90;;;;;;5063821;28;20654;-73
2023/04/10 01:23:31;;;;;;;120.32;95.78;;;6.30;99.90;;;;;;5066055;28;20470;-73
2023/04/10 01:25:57;;;;;;;134.93;96.40;;;6.30;99.90;;;;;;5064198;28;20057;-73
2023/04/10 01:28:41;;;;;;;123.72;98.13;;;6.20;99.90;;;;;;5062792;28;20478;-73
2023/04/10 01:31:12;;;;;;;131.40;99.53;;;6.20;99.90;;;;;;5059122;28;20056;-73
2023/04/10 01:33:44;;;;;;;122.55;93.85;;;6.20;99.90;;;;;;5062027;28;20141;-73
2023/04/10 01:36:12;;;;;;;131.93;99.80;;;6.10;99.90;;;;;;5054294;28;20465;-73
2023/04/10 01:38:43;;;;;;;131.85;97.22;;;6.10;99.90;;;;;;5050359;28;20274;-73
2023/04/10 01:41:08;;;;;;;124.70;98.68;;;6.00;99.90;;;;;;5066851;28;20503;-73
2023/04/10 01:43:35;;;;;;;139.63;103.28;;;6.00;99.90;;;;;;5060336;28;20199;-73
2023/04/10 01:46:02;;;;;;;127.90;98.93;;;6.00;99.90;;;;;;5058968;28;20060;-73
2023/04/10 01:48:29;;;;;;;131.75;101.05;;;6.00;99.90;;;;;;5056627;28;20450;-73
2023/04/10 01:50:55;;;;;;;130.82;99.72;;;5.90;99.90;;;;;;5046198;28;20086;-73
2023/04/10 01:53:22;;;;;;;139.23;106.88;;;5.90;99.90;;;;;;5065917;28;20405;-72
2023/04/10 01:55:49;;;;;;;133.57;103.15;;;5.90;99.90;;;;;;5065883;28;20052;-72
2023/04/10 01:58:15;;;;;;;127.80;98.97;;;5.90;99.90;;;;;;5060864;28;20119;-73
2023/04/10 02:00:42;;;;;;;127.60;100.25;;;5.80;99.90;;;;;;5061374;28;20124;-73
2023/04/10 02:03:08;;;;;;;130.60;100.68;;;5.80;99.90;;;;;;5059774;28;20060;-73
2023/04/10 02:06:28;;;;;;;132.65;105.32;;;5.80;99.90;;;;;;5057994;28;20040;-73
2023/04/10 02:09:39;;;;;;;133.88;97.80;;;5.80;99.90;;;;;;5044536;28;20048;-73
2023/04/10 02:12:08;;;;;;;136.98;102.38;;;5.80;99.90;;;;;;5043373;28;20048;-73
2023/04/10 02:14:39;;;;;;;138.20;102.63;;;5.70;99.90;;;;;;5060658;28;20540;-73
2023/04/10 02:17:06;;;;;;;129.98;98.57;;;5.70;99.90;;;;;;5064590;28;20057;-73
2023/04/10 02:19:34;;;;;;;127.88;99.68;;;5.70;99.90;;;;;;5064405;28;20059;-73
2023/04/10 02:22:00;;;;;;;126.28;95.93;;;5.60;99.90;;;;;;5067294;28;20060;-73
2023/04/10 02:24:27;;;;;;;128.45;95.03;;;5.70;99.90;;;;;;5064018;28;20052;-73
2023/04/10 02:26:53;;;;;;;124.20;97.78;;;5.60;99.90;;;;;;5057687;28;20072;-73
2023/04/10 02:29:18;;;;;;;124.75;94.82;;;5.60;99.90;;;;;;5060246;28;20091;-72
2023/04/10 02:31:45;;;;;;;131.05;96.35;;;5.60;99.90;;;;;;5056740;28;20226;-73
2023/04/10 02:34:11;;;;;;;126.30;92.40;;;5.60;99.90;;;;;;5064607;28;20070;-73
2023/04/10 02:36:38;;;;;;;128.48;93.72;;;5.60;99.90;;;;;;5047189;28;20044;-73
2023/04/10 02:39:06;;;;;;;116.97;93.40;;;5.70;99.90;;;;;;5061055;28;20041;-73
2023/04/10 02:41:32;;;;;;;127.72;93.68;;;5.70;99.90;;;;;;5063904;28;20490;-73
2023/04/10 02:43:58;;;;;;;120.43;94.50;;;5.70;99.90;;;;;;5063228;28;20037;-73
2023/04/10 02:46:24;;;;;;;125.65;97.43;;;5.70;99.90;;;;;;5058708;28;20506;-73
2023/04/10 02:48:51;;;;;;;120.63;91.57;;;5.80;99.90;;;;;;5065282;28;20174;-73
2023/04/10 02:51:17;;;;;;;120.13;94.75;;;5.80;99.90;;;;;;5057428;28;20493;-73
2023/04/10 02:53:42;;;;;;;120.07;90.75;;;5.80;99.90;;;;;;5051159;28;20059;-73
2023/04/10 02:56:10;;;;;;;127.65;93.47;;;5.80;99.90;;;;;;5056390;28;20460;-73
2023/04/10 02:58:37;;;;;;;122.22;96.25;;;5.80;99.90;;;;;;5059483;28;20499;-73
2023/04/10 03:01:05;;;;;;;122.13;89.75;;;5.80;99.90;;;;;;5063382;28;20045;-73
2023/04/10 03:03:31;;;;;;;126.93;93.10;;;5.70;99.90;;;;;;5056411;28;20084;-73
2023/04/10 03:05:57;;;;;;;113.75;87.72;;;5.70;99.90;;;;;;5049487;28;20437;-73
2023/04/10 03:08:22;;;;;;;128.43;91.30;;;5.70;99.90;;;;;;5065829;28;20040;-73
2023/04/10 03:10:48;;;;;;;110.53;87.43;;;5.60;99.90;;;;;;5054725;28;20155;-73
2023/04/10 03:13:14;;;;;;;118.93;89.18;;;5.60;99.90;;;;;;5068268;28;20044;-73
2023/04/10 03:15:40;;;;;;;119.95;87.25;;;5.60;99.90;;;;;;5068378;28;20040;-72
2023/04/10 03:18:06;;;;;;;125.65;91.28;;;5.60;99.90;;;;;;5063879;28;20098;-73
2023/04/10 03:20:32;;;;;;;116.32;89.13;;;5.60;99.90;;;;;;5057022;28;20082;-73
2023/04/10 03:22:58;;;;;;;121.88;89.75;;;5.60;99.90;;;;;;5062648;28;20049;-72
2023/04/10 03:25:25;;;;;;;119.65;87.28;;;5.60;99.90;;;;;;5047777;28;20113;-73
2023/04/10 03:27:50;;;;;;;117.78;89.40;;;5.60;99.90;;;;;;5067592;28;20044;-73
2023/04/10 03:30:16;;;;;;;110.13;89.95;;;5.60;99.90;;;;;;5068692;28;20477;-73
2023/04/10 03:32:42;;;;;;;121.72;90.38;;;5.60;99.90;;;;;;5068794;28;20178;-73
2023/04/10 03:35:09;;;;;;;126.25;97.53;;;5.60;99.90;;;;;;5067391;28;20497;-73
2023/04/10 03:37:35;;;;;;;121.40;90.07;;;5.60;99.90;;;;;;5063792;28;20496;-73
2023/04/10 03:40:01;;;;;;;116.95;90.65;;;5.60;99.90;;;;;;5059427;28;20052;-73
2023/04/10 03:42:27;;;;;;;133.18;95.72;;;5.50;99.90;;;;;;5061141;28;20049;-72
2023/04/10 03:44:52;;;;;;;121.15;92.45;;;5.50;99.90;;;;;;5067084;28;20101;-73
2023/04/10 03:47:18;;;;;;;113.95;90.28;;;5.60;99.90;;;;;;5054030;28;20045;-72
2023/04/10 03:49:44;;;;;;;129.35;98.25;;;5.50;99.90;;;;;;5058461;28;20044;-72
2023/04/10 03:52:09;;;;;;;115.63;89.47;;;5.50;99.90;;;;;;5057369;28;20057;-72
2023/04/10 03:54:35;;;;;;;120.65;93.53;;;5.50;99.90;;;;;;5055361;28;20049;-71
2023/04/10 03:57:00;;;;;;;122.65;91.78;;;5.50;99.90;;;;;;5065901;28;20048;-72
2023/04/10 03:59:26;;;;;;;122.45;90.43;;;5.50;99.90;;;;;;5062652;28;20048;-72
2023/04/10 04:01:52;;;;;;;115.85;91.30;;;5.50;99.90;;;;;;5068312;28;20409;-72
2023/04/10 04:04:19;;;;;;;120.53;92.28;;;5.50;99.90;;;;;;5053875;28;20103;-72
2023/04/10 04:06:45;;;;;;;117.55;90.95;;;5.50;99.90;;;;;;5062645;28;20060;-72
2023/04/10 04:09:10;;;;;;;123.68;94.47;;;5.60;99.90;;;;;;5062395;28;20059;-72
2023/04/10 04:11:37;;;;;;;112.55;89.60;;;5.60;99.90;;;;;;5057812;28;20072;-74
2023/04/10 04:14:03;;;;;;;124.22;91.35;;;5.60;99.90;;;;;;5060273;28;20078;-74
2023/04/10 04:16:28;;;;;;;123.80;89.03;;;5.60;99.90;;;;;;5064966;28;20048;-74
2023/04/10 04:18:54;;;;;;;116.05;90.35;;;5.60;99.90;;;;;;5063322;28;20053;-74
2023/04/10 04:21:20;;;;;;;129.20;94.35;;;5.60;99.90;;;;;;5067007;28;20080;-74
2023/04/10 04:23:45;;;;;;;117.13;92.50;;;5.60;99.90;;;;;;5063467;28;20040;-74
2023/04/10 04:26:11;;;;;;;130.70;94.50;;;5.50;99.90;;;;;;5058951;28;20119;-76
2023/04/10 04:28:36;;;;;;;123.07;92.20;;;5.50;99.90;;;;;;5068080;28;20185;-75
2023/04/10 04:31:02;;;;;;;128.70;93.85;;;5.50;99.90;;;;;;5064753;28;20052;-75
2023/04/10 04:33:28;;;;;;;124.90;95.07;;;5.50;99.90;;;;;;5065755;28;20382;-75
2023/04/10 04:35:53;;;;;;;124.50;91.80;;;5.50;99.90;;;;;;5064564;28;20120;-74
2023/04/10 04:40:54;;;;;;;131.25;96.05;;;5.50;99.90;;;;;;4749270;22;20073;-70
2023/04/10 04:43:20;;;;;;;126.78;96.05;;;5.60;99.90;;;;;;4967345;28;20051;-69
2023/04/10 04:45:46;;;;;;;129.82;97.18;;;5.60;99.90;;;;;;4970045;28;20559;-69
2023/04/10 04:48:11;;;;;;;125.15;96.82;;;5.60;99.90;;;;;;4964413;28;20071;-69
2023/04/10 04:50:39;;;;;;;124.22;94.38;;;5.60;99.90;;;;;;4963596;28;20051;-70
2023/04/10 04:53:05;;;;;;;124.72;95.85;;;5.60;99.90;;;;;;4968410;28;20143;-70
2023/04/10 04:55:31;;;;;;;130.20;96.18;;;5.70;99.90;;;;;;4968237;28;20118;-70
2023/04/10 04:57:56;;;;;;;137.90;99.65;;;5.70;99.90;;;;;;4966675;28;20059;-69
2023/04/10 05:00:22;;;;;;;138.90;99.88;;;5.80;99.90;;;;;;4964940;28;20430;-69
2023/04/10 05:02:48;;;;;;;138.48;105.40;;;5.80;99.90;;;;;;4968793;28;20046;-70
2023/04/10 05:05:13;;;;;;;142.43;102.13;;;5.90;99.90;;;;;;4985854;28;20057;-69
2023/04/10 05:07:39;;;;;;;133.55;99.38;;;5.80;99.90;;;;;;4969534;28;20049;-69
2023/04/10 05:10:07;;;;;;;145.77;101.20;;;5.80;99.90;;;;;;4969057;28;20042;-69
2023/04/10 05:12:33;;;;;;;145.68;102.78;;;5.80;99.90;;;;;;4975778;28;20053;-69
2023/04/10 05:14:59;;;;;;;157.18;106.70;;;5.90;99.90;;;;;;4980105;28;20043;-70
2023/04/10 05:17:25;;;;;;;133.00;100.60;;;5.90;99.90;;;;;;4969700;28;20054;-70
2023/04/10 05:19:50;;;;;;;138.45;105.00;;;5.90;99.90;;;;;;4963287;28;20050;-69
2023/04/10 05:22:16;;;;;;;133.13;104.07;;;6.00;99.90;;;;;;4969848;28;20096;-70
2023/04/10 05:24:42;;;;;;;137.05;102.97;;;6.00;99.90;;;;;;4969233;28;20068;-69
2023/04/10 05:27:07;;;;;;;139.90;105.50;;;6.10;99.90;;;;;;4972163;28;20061;-69
2023/04/10 05:29:33;;;;;;;139.82;103.32;;;6.10;99.90;;;;;;4976161;28;20047;-69
2023/04/10 05:31:59;;;;;;;147.07;104.93;;;6.20;99.90;;;;;;4968384;28;20559;-69
2023/04/10 05:34:24;;;;;;;139.30;103.57;;;6.20;99.90;;;;;;4967993;28;20155;-69
2023/04/10 05:36:50;;;;;;;149.68;107.50;;;6.30;99.90;;;;;;4967392;28;20077;-69
2023/04/10 05:39:16;;;;;;;148.18;104.38;;;6.30;99.90;;;;;;4986546;28;20050;-69
2023/04/10 05:41:41;;;;;;;143.70;106.53;;;6.40;99.90;;;;;;4987431;28;20058;-69
2023/04/10 05:44:07;;;;;;;140.63;104.15;;;6.40;99.90;;;;;;4987890;28;20054;-70
2023/04/10 05:46:33;;;;;;;151.63;105.38;;;6.50;99.90;;;;;;4975530;28;20057;-69
2023/04/10 05:48:59;;;;;;;139.23;102.35;;;6.50;99.90;;;;;;4984519;28;20756;-69
2023/04/10 05:51:26;;;;;;;150.85;106.18;;;6.60;99.90;;;;;;4987776;28;20157;-69
2023/04/10 05:53:51;;;;;;;136.65;102.00;;;6.80;99.90;;;;;;4976722;28;20047;-69
2023/04/10 05:56:17;;;;;;;150.70;106.15;;;7.00;99.90;;;;;;4966798;28;20058;-69
2023/04/10 05:58:43;;;;;;;139.25;101.95;;;7.10;99.90;;;;;;4982479;28;20050;-69
2023/04/10 06:01:08;;;;;;;138.00;102.65;;;7.30;99.90;;;;;;4974740;28;20039;-69
2023/04/10 06:03:34;;;;;;;133.75;100.45;;;7.40;99.90;;;;;;4967805;28;20053;-70
2023/04/10 06:06:04;;;;;;;143.75;103.45;;;7.50;99.90;;;;;;4965257;28;20053;-70
2023/04/10 06:08:29;;;;;;;147.63;107.13;;;7.60;99.90;;;;;;4971438;28;20046;-70
2023/04/10 06:10:56;;;;;;;148.68;108.10;;;7.80;99.90;;;;;;4961915;28;20047;-70
2023/04/10 06:13:21;;;;;;;137.73;104.07;;;7.90;99.90;;;;;;4968327;28;20052;-70
2023/04/10 06:15:47;;;;;;;138.52;106.40;;;8.00;99.90;;;;;;4971823;28;20042;-70
2023/04/10 06:18:13;;;;;;;150.00;103.00;;;8.10;99.90;;;;;;4974010;28;20101;-70
2023/04/10 06:20:38;;;;;;;146.98;104.60;;;8.20;99.90;;;;;;4971828;28;20481;-70
2023/04/10 06:23:05;;;;;;;141.30;106.47;;;8.40;99.90;;;;;;4967071;28;20051;-70
2023/04/10 06:25:31;;;;;;;149.70;108.00;;;8.70;99.90;;;;;;4968201;28;20046;-70
2023/04/10 06:27:59;;;;;;;143.70;100.32;;;9.00;99.90;;;;;;4971636;28;20617;-70
2023/04/10 06:30:25;;;;;;;143.50;105.05;;;9.20;99.90;;;;;;4974601;28;20089;-71
2023/04/10 06:32:51;;;;;;;145.60;105.20;;;9.20;99.90;;;;;;4970795;28;20515;-71
2023/04/10 06:35:17;;;;;;;131.38;99.88;;;9.30;99.90;;;;;;4963425;28;20042;-70
2023/04/10 06:37:42;;;;;;;144.55;101.07;;;9.20;99.90;;;;;;4967965;28;20524;-70
2023/04/10 06:40:10;;;;;;;127.13;95.53;;;9.20;99.90;;;;;;4963858;28;20423;-70
2023/04/10 06:42:36;;;;;;;134.50;99.25;;;9.20;99.90;;;;;;4965834;28;20511;-69
2023/04/10 06:45:03;;;;;;;138.65;97.57;;;9.20;99.90;;;;;;4966198;28;20042;-70
2023/04/10 06:47:30;;;;;;;133.57;96.88;;;9.30;99.90;;;;;;4967685;28;20065;-70
2023/04/10 06:49:56;;;;;;;133.57;96.32;;;9.40;99.90;;;;;;4958114;28;20046;-70
2023/04/10 06:52:21;;;;;;;118.80;93.97;;;9.40;99.90;;;;;;4971526;28;20086;-70
2023/04/10 06:54:47;;;;;;;124.10;92.57;;;9.40;99.90;;;;;;4975118;28;20464;-70
2023/04/10 06:57:13;;;;;;;127.43;94.80;;;9.50;99.90;;;;;;4973598;28;20057;-70
2023/04/10 06:59:39;;;;;;;122.05;90.28;;;9.50;99.90;;;;;;4973340;28;20554;-70
2023/04/10 07:02:05;;;;;;;128.30;94.15;;;9.60;99.90;;;;;;4952489;28;20075;-70
2023/04/10 07:04:30;;;;;;;119.45;87.25;;;9.70;99.90;;;;;;4982692;28;20050;-70
2023/04/10 07:06:56;;;;;;;112.07;84.30;;;9.80;99.90;;;;;;4970828;28;20605;-70
2023/04/10 07:09:27;;;;;;;109.32;80.72;;;9.80;99.90;;;;;;4977111;28;20442;-70
2023/04/10 07:11:53;;;;;;;116.18;83.18;;;9.80;99.90;;;;;;4971216;28;20039;-70
2023/04/10 07:14:19;;;;;;;96.80;77.55;;;9.90;99.90;;;;;;4970687;28;20059;-70
2023/04/10 07:16:48;;;;;;;107.20;79.88;;;9.90;99.90;;;;;;4971113;28;20046;-70
2023/04/10 07:19:14;;;;;;;116.32;76.18;;;9.90;99.90;;;;;;4975428;28;20034;-70
2023/04/10 07:21:40;;;;;;;101.90;73.57;;;9.90;99.90;;;;;;4964866;28;20144;-70
2023/04/10 07:24:06;;;;;;;93.70;66.75;;;9.90;99.90;;;;;;4971153;28;20515;-70
2023/04/10 07:26:32;;;;;;;97.70;68.72;;;9.90;99.90;;;;;;4969479;28;20825;-70
2023/04/10 07:28:57;;;;;;;95.80;69.32;;;10.00;99.90;;;;;;4972767;28;20073;-70
2023/04/10 07:31:23;;;;;;;93.88;69.85;;;10.00;99.90;;;;;;4982746;28;20047;-70
2023/04/10 07:33:49;;;;;;;88.30;64.82;;;10.10;99.90;;;;;;4971643;28;20043;-70
2023/04/10 07:36:15;;;;;;;80.65;61.33;;;10.20;99.90;;;;;;4971311;28;20054;-70
2023/04/10 07:38:41;;;;;;;87.18;63.15;;;10.30;99.90;;;;;;4970383;28;20938;-70
2023/04/10 07:41:06;;;;;;;99.82;66.10;;;10.40;99.90;;;;;;4970738;28;20129;-70
2023/04/10 07:43:32;;;;;;;88.55;61.85;;;10.50;99.90;;;;;;4971055;28;20073;-70
2023/04/10 07:45:58;;;;;;;78.70;61.28;;;10.60;99.90;;;;;;4970126;28;20047;-70
2023/04/10 07:48:23;;;;;;;77.10;56.13;;;10.70;99.90;;;;;;4969376;28;20078;-71
2023/04/10 07:50:50;;;;;;;85.45;54.83;;;10.80;99.90;;;;;;4966353;28;20412;-71
2023/04/10 07:53:15;;;;;;;87.28;59.72;;;11.00;99.90;;;;;;4964940;28;20526;-70
2023/04/10 07:55:47;;;;;;;81.57;54.38;;;11.20;99.90;;;;;;4968841;28;20129;-71
2023/04/10 07:58:13;;;;;;;73.70;52.63;;;11.40;99.90;;;;;;4961296;28;20129;-71
2023/04/10 08:00:39;;;;;;;69.57;50.88;;;11.60;99.90;;;;;;4969818;28;20134;-71
2023/04/10 08:03:06;;;;;;;69.03;49.05;;;11.80;99.90;;;;;;4969454;28;20074;-70
2023/04/10 08:05:31;;;;;;;73.03;51.60;;;12.00;99.90;;;;;;4970363;28;20113;-70
2023/04/10 08:07:58;;;;;;;66.40;49.83;;;12.20;99.90;;;;;;4970927;28;20043;-70
2023/04/10 08:10:24;;;;;;;72.97;47.85;;;12.40;99.90;;;;;;4976738;28;20073;-71
2023/04/10 08:12:49;;;;;;;65.22;48.33;;;12.50;99.90;;;;;;4969880;28;20476;-71
2023/04/10 08:15:17;;;;;;;65.70;47.22;;;12.60;99.90;;;;;;4974575;28;20093;-71
2023/04/10 08:17:42;;;;;;;60.60;45.45;;;12.80;99.90;;;;;;4975809;28;20043;-70
2023/04/10 08:20:10;;;;;;;61.00;43.92;;;12.90;99.80;;;;;;4969041;28;20704;-71
2023/04/10 08:22:35;;;;;;;55.15;42.85;;;13.00;96.50;;;;;;4967031;28;20038;-71
2023/04/10 08:25:01;;;;;;;58.22;43.38;;;13.20;93.70;;;;;;4967934;28;20049;-70
2023/04/10 08:27:27;;;;;;;55.50;42.17;;;13.30;91.80;;;;;;4969999;28;20059;-70
2023/04/10 08:29:53;;;;;;;61.05;43.95;;;13.50;91.20;;;;;;4969624;28;20058;-71
2023/04/10 08:32:19;;;;;;;50.92;39.05;;;13.60;84.50;;;;;;4968889;28;20150;-70
2023/04/10 08:34:44;;;;;;;56.28;40.55;;;13.80;82.20;;;;;;4967485;28;20043;-70
2023/04/10 08:37:11;;;;;;;54.58;41.60;;;13.90;78.80;;;;;;4967395;28;20046;-70
2023/04/10 08:39:37;;;;;;;52.22;38.40;;;13.90;76.30;;;;;;4969156;28;20660;-70
2023/04/10 08:42:05;;;;;;;51.83;38.28;;;14.00;75.30;;;;;;4968911;28;20161;-70
2023/04/10 08:44:30;;;;;;;59.58;43.22;;;14.00;74.50;;;;;;4969596;28;20051;-71
2023/04/10 08:47:00;;;;;;;51.63;39.88;;;14.10;75.40;;;;;;4980071;28;20050;-70
2023/04/10 08:49:31;;;;;;;54.95;40.45;;;14.10;74.40;;;;;;4958651;28;20050;-70
2023/04/10 08:51:57;;;;;;;60.25;42.08;;;14.20;73.30;;;;;;4964447;28;20170;-70
2023/04/10 08:54:28;;;;;;;48.83;38.00;;;14.10;73.50;;;;;;4969536;28;20051;-70
2023/04/10 08:56:57;;;;;;;51.85;40.60;;;14.20;72.60;;;;;;4967129;28;20090;-70
2023/04/10 08:59:24;;;;;;;59.65;42.35;;;14.30;75.00;;;;;;4972508;28;20042;-70
2023/04/10 09:01:49;;;;;;;57.85;41.83;;;14.40;74.30;;;;;;4967516;28;20043;-71
2023/04/10 09:04:16;;;;;;;62.22;42.85;;;14.50;72.70;;;;;;4967023;28;20618;-71
2023/04/10 09:06:43;;;;;;;56.95;42.20;;;14.60;71.30;;;;;;4968836;28;20482;-70
2023/04/10 09:09:09;;;;;;;57.03;39.83;;;14.60;70.70;;;;;;4968532;28;20053;-71
2023/04/10 09:11:55;;;;;;;55.72;39.83;;;14.50;70.30;;;;;;4974141;28;20046;-70
2023/04/10 09:14:24;;;;;;;58.28;39.88;;;14.50;68.20;;;;;;4968535;28;20046;-71
2023/04/10 09:16:50;;;;;;;;;;;14.50;69.20;;;;;;4969089;28;20074;-70
2023/04/10 09:19:34;;;;;;;54.55;41.83;;;14.70;70.70;;;;;;4967064;28;19988;-71
2023/04/10 09:21:59;;;;;;;58.50;39.58;;;14.90;70.60;;;;;;4961890;28;20503;-70
2023/04/10 09:24:27;;;;;;;54.70;41.10;;;15.10;70.60;;;;;;4953072;28;20050;-71
2023/04/10 09:26:53;;;;;;;54.97;39.67;;;15.20;69.60;;;;;;4964521;28;20050;-71
2023/04/10 09:29:19;;;;;;;54.22;41.45;;;15.40;69.50;;;;;;4955631;28;20440;-70
2023/04/10 09:31:44;;;;;;;49.92;37.45;;;15.40;68.60;;;;;;4969067;28;20038;-70
2023/04/10 09:34:22;;;;;;;51.22;35.72;;;15.60;68.10;;;;;;4967430;28;20038;-71
2023/04/10 09:36:55;;;;;;;53.45;37.75;;;15.90;67.50;;;;;;4967512;28;20051;-71
2023/04/10 09:39:32;;;;;;;48.88;36.30;;;16.00;67.70;;;;;;4967581;28;20043;-71
2023/04/10 09:41:57;;;;;;;44.10;35.53;;;16.10;66.30;;;;;;4949338;28;20063;-71
2023/04/10 09:44:34;;;;;;;46.85;34.40;;;16.20;65.50;;;;;;4961692;28;20065;-70
2023/04/10 09:47:20;;;;;;;49.90;36.35;;;16.20;64.20;;;;;;4968484;28;20516;-71
2023/04/10 09:49:51;;;;;;;44.72;33.78;;;16.10;64.60;;;;;;4975875;28;20148;-71
2023/04/10 09:52:20;;;;;;;42.03;32.05;;;16.10;63.80;;;;;;4983482;28;20050;-70
2023/04/10 09:54:46;;;;;;;45.45;32.70;;;16.10;63.10;;;;;;4968251;28;20054;-69
2023/04/10 09:57:19;;;;;;;40.47;30.88;;;16.10;62.50;;;;;;4987791;28;20081;-70
2023/04/10 09:59:59;;;;;;;43.92;31.45;;;16.10;63.10;;;;;;4979920;28;20053;-70
2023/04/10 10:02:28;;;;;;;43.90;31.25;;;16.10;63.10;;;;;;4973585;28;20038;-70
2023/04/10 10:04:54;;;;;;;39.42;27.35;;;16.00;62.30;;;;;;4988527;28;20050;-69
2023/04/10 10:07:21;;;;;;;41.88;30.50;;;16.00;62.70;;;;;;4985617;28;20057;-70
2023/04/10 10:09:49;;;;;;;39.63;29.10;;;16.00;62.20;;;;;;4968489;28;20078;-69
2023/04/10 10:12:18;;;;;;;42.25;28.48;;;16.00;62.70;;;;;;4968427;28;20293;-70
2023/04/10 10:15:28;;;;;;;42.10;26.52;;;15.90;62.30;;;;;;4967497;28;20054;-69
2023/04/10 10:18:18;;;;;;;32.88;24.13;;;16.10;61.50;;;;;;4955691;28;20139;-70
2023/04/10 10:20:46;;;;;;;37.50;24.80;;;16.20;62.30;;;;;;4969258;28;20058;-69
2023/04/10 10:23:14;;;;;;;26.17;22.70;;;16.40;62.20;;;;;;4972838;28;20038;-69
2023/04/10 10:25:42;;;;;;;33.13;24.70;;;16.50;62.10;;;;;;4971853;28;20050;-69
2023/04/10 10:28:11;;;;;;;24.42;20.65;;;16.70;61.70;;;;;;4986623;28;20450;-70
2023/04/10 10:30:37;;;;;;;28.30;22.63;;;16.80;60.70;;;;;;4981120;28;20042;-69
2023/04/10 10:33:06;;;;;;;25.65;20.42;;;17.00;59.80;;;;;;4972024;28;20050;-69
2023/04/10 10:35:36;;;;;;;31.25;21.08;;;17.10;59.50;;;;;;4964935;28;20055;-69
2023/04/10 10:38:03;;;;;;;27.15;19.35;;;17.10;59.00;;;;;;4953014;28;20050;-69
2023/04/10 10:40:32;;;;;;;22.05;17.17;;;17.20;58.70;;;;;;4959174;28;20079;-70
2023/04/10 10:43:01;;;;;;;23.42;17.23;;;17.30;58.20;;;;;;4972977;28;20055;-69
2023/04/10 10:45:40;;;;;;;24.10;19.05;;;17.30;57.70;;;;;;4972376;28;20113;-69
2023/04/10 10:48:06;;;;;;;23.45;20.88;;;17.20;57.30;;;;;;4980452;28;20061;-69
2023/04/10 10:50:52;;;;;;;20.50;17.15;;;17.10;57.30;;;;;;4984632;28;20051;-69
2023/04/10 10:53:39;;;;;;;20.20;16.27;;;17.10;57.10;;;;;;4952816;28;20051;-69
2023/04/10 10:56:22;;;;;;;22.88;16.92;;;17.20;57.80;;;;;;4973331;28;20642;-69
2023/04/10 10:58:54;;;;;;;22.98;16.65;;;17.20;57.90;;;;;;4971431;28;20496;-69
2023/04/10 11:01:21;;;;;;;22.13;17.30;;;17.10;57.50;;;;;;4971577;28;20052;-70
2023/04/10 11:03:47;;;;;;;21.00;14.50;;;17.10;57.70;;;;;;4972214;28;20054;-69
2023/04/10 11:06:18;;;;;;;20.60;15.65;;;17.00;57.20;;;;;;4971540;28;20097;-69
2023/04/10 11:08:51;;;;;;;20.10;15.52;;;16.90;57.40;;;;;;4965913;28;20594;-69
2023/04/10 11:11:22;;;;;;;22.45;15.07;;;16.80;57.30;;;;;;4952624;28;20504;-69
2023/04/10 11:13:56;;;;;;;25.55;14.20;;;16.70;57.40;;;;;;4969283;28;20071;-69
2023/04/10 11:16:45;;;;;;;18.58;14.40;;;16.70;58.50;;;;;;4966662;28;20089;-70
2023/04/10 11:19:11;;;;;;;21.25;15.30;;;16.80;59.00;;;;;;4959781;28;20161;-69
2023/04/10 11:22:00;;;;;;;18.90;14.32;;;16.90;58.40;;;;;;4990671;28;20541;-70
2023/04/10 11:24:26;;;;;;;16.08;13.05;;;16.80;57.50;;;;;;4970922;28;20062;-69
2023/04/10 11:26:52;;;;;;;15.57;13.73;;;16.80;58.20;;;;;;4973708;28;20464;-69
2023/04/10 11:29:26;;;;;;;16.48;12.82;;;16.80;58.50;;;;;;4971410;28;20081;-70
2023/04/10 11:31:58;;;;;;;16.35;13.13;;;16.80;58.30;;;;;;4970603;28;20042;-70
2023/04/10 11:34:26;;;;;;;18.33;14.38;;;16.80;57.90;;;;;;4970945;28;20043;-69
2023/04/10 11:36:52;;;;;;;17.27;12.90;;;16.80;57.80;;;;;;4990050;28;20042;-69
2023/04/10 11:39:19;;;;;;;15.88;13.23;;;16.80;57.90;;;;;;4990780;28;20514;-69
2023/04/10 11:41:52;;;;;;;18.73;12.20;;;16.80;57.40;;;;;;4965025;28;20050;-69
2023/04/10 11:44:37;;;;;;;15.40;13.15;;;16.80;57.50;;;;;;4970436;28;20055;-69
2023/04/10 11:47:03;;;;;;;16.73;13.30;;;16.70;57.40;;;;;;4971123;28;20062;-69
2023/04/10 11:49:31;;;;;;;14.98;12.50;;;16.70;57.60;;;;;;4970323;28;20702;-70
2023/04/10 11:51:57;;;;;;;15.55;11.15;;;16.70;57.90;;;;;;4979152;28;20070;-70
2023/04/10 11:54:24;;;;;;;17.27;13.65;;;16.70;58.10;;;;;;4970839;28;20604;-70
2023/04/10 11:56:58;;;;;;;13.93;10.77;;;16.70;57.70;;;;;;4968452;28;20041;-69
2023/04/10 11:59:24;;;;;;;12.05;9.95;;;16.70;57.90;;;;;;4970715;28;20047;-70
2023/04/10 12:01:54;;;;;;;11.90;10.27;;;16.80;58.10;;;;;;4971711;28;20495;-69
2023/04/10 12:04:21;;;;;;;13.63;10.75;;;16.70;58.00;;;;;;4971452;28;20053;-69
2023/04/10 12:06:49;;;;;;;9.23;8.30;;;16.80;57.30;;;;;;4981398;28;20490;-70
2023/04/10 12:09:16;;;;;;;11.70;8.77;;;16.80;57.30;;;;;;4977571;28;20614;-70
2023/04/10 12:11:53;;;;;;;13.75;9.65;;;16.90;57.50;;;;;;4971365;28;20051;-69
2023/04/10 12:14:22;;;;;;;14.20;9.47;;;16.90;56.30;;;;;;4956014;28;20058;-69
2023/04/10 12:16:50;;;;;;;9.20;8.23;;;17.00;56.50;;;;;;4968407;28;20441;-69
2023/04/10 12:19:17;;;;;;;13.05;8.43;;;17.00;56.20;;;;;;4971311;28;20093;-69
2023/04/10 12:21:44;;;;;;;11.13;8.88;;;17.10;56.20;;;;;;4980879;28;20046;-70
2023/04/10 12:24:10;;;;;;;9.90;8.20;;;17.20;56.20;;;;;;4971115;28;20165;-69
2023/04/10 12:26:36;;;;;;;12.80;9.15;;;17.40;56.10;;;;;;4969749;28;20043;-69
2023/04/10 12:29:05;;;;;;;9.80;8.70;;;17.50;55.80;;;;;;4970052;28;20522;-69
2023/04/10 12:31:34;;;;;;;11.95;9.50;;;17.60;56.50;;;;;;4965725;28;20073;-69
2023/04/10 12:34:01;;;;;;;13.18;11.07;;;17.60;55.80;;;;;;4970207;28;20051;-70